Time;durP1;ratioP1;P1;durP2;ratioP2;P2;SDS_P1;SDS_P2;PMS_P1;PMS_P2;Temp;Humidity;BMP_temperature;BMP_pressure;BME280_temperature;BME280_humidity;BME280_pressure;Samples;Min_cycle;Max_cycle;Signal;HPM_P1;HPM_P2
2021/05/22 00:01:53;;;;;;;1.40;0.60;;;23.90;38.80;;;;;;5111378;28;20409;-65
2021/05/22 00:04:19;;;;;;;0.93;0.50;;;23.80;38.70;;;;;;5112017;28;20388;-65
2021/05/22 00:06:44;;;;;;;1.23;0.60;;;23.90;38.60;;;;;;5111971;28;20376;-65
2021/05/22 00:09:10;;;;;;;1.20;0.50;;;23.90;38.50;;;;;;5111916;28;20748;-65
2021/05/22 00:11:36;;;;;;;1.40;0.60;;;23.90;38.40;;;;;;5111450;28;20404;-65
2021/05/22 00:14:04;;;;;;;1.15;0.50;;;23.90;38.40;;;;;;5111996;28;20424;-65
2021/05/22 00:16:29;;;;;;;1.00;0.50;;;23.90;38.40;;;;;;5111854;28;20376;-65
2021/05/22 00:18:55;;;;;;;1.03;0.50;;;23.90;38.40;;;;;;5111840;28;20406;-65
2021/05/22 00:21:21;;;;;;;1.35;0.60;;;23.90;38.40;;;;;;5111752;28;20471;-65
2021/05/22 00:23:47;;;;;;;1.10;0.40;;;23.90;38.40;;;;;;5111295;28;20856;-65
2021/05/22 00:26:12;;;;;;;0.77;0.40;;;23.90;38.30;;;;;;5111698;28;20376;-65
2021/05/22 00:28:38;;;;;;;0.93;0.50;;;23.90;38.30;;;;;;5111871;28;20439;-65
2021/05/22 00:31:04;;;;;;;1.00;0.52;;;23.90;38.30;;;;;;5111819;28;20566;-65
2021/05/22 00:33:29;;;;;;;1.00;0.50;;;23.90;38.30;;;;;;5111198;28;20769;-65
2021/05/22 00:35:55;;;;;;;1.43;0.63;;;23.80;38.30;;;;;;5111582;28;20402;-65
2021/05/22 00:38:21;;;;;;;1.30;0.50;;;23.80;38.20;;;;;;5111616;28;20385;-65
2021/05/22 00:40:47;;;;;;;1.10;0.40;;;23.80;38.10;;;;;;5111663;28;20471;-64
2021/05/22 00:43:12;;;;;;;1.00;0.47;;;23.80;38.20;;;;;;5111775;28;20799;-64
2021/05/22 00:45:38;;;;;;;0.80;0.45;;;23.80;38.90;;;;;;5114750;28;20880;-65
2021/05/22 00:48:04;;;;;;;1.40;0.50;;;23.70;38.30;;;;;;5115552;28;20448;-65
2021/05/22 00:50:33;;;;;;;0.90;0.40;;;23.70;38.30;;;;;;5115518;28;20458;-65
2021/05/22 00:53:01;;;;;;;0.90;0.40;;;23.70;38.30;;;;;;5115466;28;20380;-64
2021/05/22 00:55:26;;;;;;;1.10;0.50;;;23.70;38.10;;;;;;5115338;28;20385;-64
2021/05/22 00:57:52;;;;;;;0.68;0.35;;;23.70;38.10;;;;;;5114952;28;20395;-64
2021/05/22 01:00:28;;;;;;;0.80;0.45;;;23.80;38.10;;;;;;5115286;28;20388;-65
2021/05/22 01:02:54;;;;;;;0.70;0.40;;;23.70;38.10;;;;;;5115110;28;20497;-66
2021/05/22 01:05:20;;;;;;;0.90;0.40;;;23.70;38.20;;;;;;5115145;28;20740;-65
2021/05/22 01:07:48;;;;;;;0.83;0.40;;;23.70;38.00;;;;;;5114705;28;20396;-65
2021/05/22 01:10:14;;;;;;;0.75;0.40;;;23.70;38.10;;;;;;5115182;28;20384;-65
2021/05/22 01:12:44;;;;;;;1.40;0.40;;;23.70;38.10;;;;;;5115182;28;20388;-65
2021/05/22 01:15:13;;;;;;;0.47;0.30;;;23.70;38.10;;;;;;5113741;28;20518;-64
2021/05/22 01:17:46;;;;;;;0.60;0.30;;;23.70;38.10;;;;;;5114549;28;20423;-63
2021/05/22 01:20:17;;;;;;;0.60;0.30;;;23.70;38.00;;;;;;5114374;28;20369;-65
2021/05/22 01:22:49;;;;;;;0.73;0.50;;;23.70;38.00;;;;;;5114647;28;20423;-65
2021/05/22 01:25:24;;;;;;;0.63;0.40;;;23.70;38.00;;;;;;5114539;28;20755;-65
2021/05/22 01:27:50;;;;;;;0.70;0.40;;;23.70;37.90;;;;;;5114319;28;20813;-65
2021/05/22 01:30:17;;;;;;;1.00;0.50;;;23.70;37.80;;;;;;5114535;28;20379;-65
2021/05/22 01:32:42;;;;;;;0.75;0.40;;;23.80;37.80;;;;;;5114688;28;20431;-64
2021/05/22 01:35:09;;;;;;;0.43;0.30;;;23.70;37.70;;;;;;5114312;28;20798;-65
2021/05/22 01:37:34;;;;;;;0.55;0.40;;;23.80;37.80;;;;;;5114357;28;20421;-65
2021/05/22 01:40:00;;;;;;;0.90;0.40;;;23.80;37.60;;;;;;5114346;28;20460;-64
2021/05/22 01:42:26;;;;;;;0.57;0.33;;;23.70;37.60;;;;;;5114442;28;20502;-64
2021/05/22 01:44:52;;;;;;;0.70;0.32;;;23.70;37.60;;;;;;5114447;28;20380;-65
2021/05/22 01:47:23;;;;;;;0.47;0.30;;;23.70;37.60;;;;;;5114435;28;20402;-64
2021/05/22 01:49:51;;;;;;;0.70;0.40;;;23.70;37.60;;;;;;5113849;28;20748;-65
2021/05/22 01:52:22;;;;;;;0.50;0.30;;;23.70;37.60;;;;;;5114303;28;20381;-65
2021/05/22 01:54:49;;;;;;;0.57;0.30;;;23.70;37.60;;;;;;5114040;28;20389;-65
2021/05/22 01:57:16;;;;;;;0.90;0.30;;;23.70;37.50;;;;;;5114292;28;20529;-65
2021/05/22 01:59:42;;;;;;;0.70;0.40;;;23.70;37.60;;;;;;5113775;28;20470;-64
2021/05/22 02:02:08;;;;;;;0.82;0.40;;;23.70;37.50;;;;;;5113863;28;20411;-65
2021/05/22 02:04:35;;;;;;;0.50;0.23;;;23.70;37.50;;;;;;5112828;28;20396;-65
2021/05/22 02:07:02;;;;;;;0.43;0.20;;;23.70;37.50;;;;;;5114020;28;20420;-66
2021/05/22 02:09:30;;;;;;;0.30;0.20;;;23.60;37.50;;;;;;5114034;28;20471;-65
2021/05/22 02:11:56;;;;;;;0.68;0.30;;;23.70;37.60;;;;;;5112318;28;20449;-65
2021/05/22 02:14:30;;;;;;;0.50;0.25;;;23.70;37.50;;;;;;5113912;28;20377;-65
2021/05/22 02:16:56;;;;;;;0.80;0.30;;;23.60;37.50;;;;;;5113964;28;20871;-65
2021/05/22 02:19:24;;;;;;;0.50;0.30;;;23.60;37.50;;;;;;5113810;28;20493;-65
2021/05/22 02:21:50;;;;;;;0.60;0.30;;;23.60;37.50;;;;;;5113271;28;20808;-65
2021/05/22 02:24:18;;;;;;;0.32;0.20;;;23.60;37.50;;;;;;5113640;28;20380;-64
2021/05/22 02:26:45;;;;;;;0.50;0.30;;;23.60;37.50;;;;;;5113706;28;20431;-64
2021/05/22 02:29:16;;;;;;;0.20;0.20;;;23.60;37.60;;;;;;5113609;28;20384;-65
2021/05/22 02:31:47;;;;;;;0.77;0.40;;;23.60;37.50;;;;;;5113208;28;20394;-64
2021/05/22 02:34:15;;;;;;;0.50;0.30;;;23.60;37.50;;;;;;5113000;28;20441;-64
2021/05/22 02:36:43;;;;;;;0.40;0.30;;;23.60;37.50;;;;;;5112902;28;20392;-65
2021/05/22 02:39:11;;;;;;;0.45;0.30;;;23.60;37.50;;;;;;5113124;28;20393;-65
2021/05/22 02:41:38;;;;;;;0.30;0.30;;;23.60;37.50;;;;;;5113073;28;20471;-64
2021/05/22 02:44:05;;;;;;;0.40;0.20;;;23.60;37.50;;;;;;5112987;28;20419;-64
2021/05/22 02:46:44;;;;;;;0.40;0.30;;;23.60;37.50;;;;;;5113279;28;20414;-65
2021/05/22 02:49:11;;;;;;;0.40;0.30;;;23.60;37.60;;;;;;5111916;28;20387;-65
2021/05/22 02:51:38;;;;;;;0.40;0.20;;;23.60;37.50;;;;;;5113291;28;20385;-64
2021/05/22 02:54:06;;;;;;;0.70;0.20;;;23.60;37.50;;;;;;5112867;28;20468;-64
2021/05/22 02:56:33;;;;;;;0.40;0.22;;;23.60;37.40;;;;;;5113562;28;20840;-65
2021/05/22 02:59:01;;;;;;;0.38;0.20;;;23.60;37.50;;;;;;5113054;28;20380;-64
2021/05/22 03:01:27;;;;;;;0.35;0.20;;;23.60;37.50;;;;;;5112750;28;20404;-64
2021/05/22 03:03:56;;;;;;;0.30;0.20;;;23.60;37.50;;;;;;5112515;28;20489;-65
2021/05/22 03:06:23;;;;;;;0.30;0.20;;;23.60;37.50;;;;;;5112529;28;20384;-65
2021/05/22 03:08:50;;;;;;;0.50;0.20;;;23.50;37.50;;;;;;5112877;28;20467;-65
2021/05/22 03:11:18;;;;;;;0.40;0.30;;;23.50;37.50;;;;;;5111534;28;20876;-64
2021/05/22 03:13:44;;;;;;;0.43;0.20;;;23.60;37.50;;;;;;5112344;28;20844;-64
2021/05/22 03:16:09;;;;;;;0.80;0.20;;;23.60;37.50;;;;;;5112705;28;20442;-64
2021/05/22 03:18:35;;;;;;;0.37;0.20;;;23.60;37.40;;;;;;5112684;28;20415;-64
2021/05/22 03:21:01;;;;;;;0.43;0.20;;;23.50;37.40;;;;;;5112722;28;20388;-65
2021/05/22 03:23:27;;;;;;;0.60;0.20;;;23.60;37.50;;;;;;5112404;28;20412;-64
2021/05/22 03:25:52;;;;;;;0.40;0.20;;;23.50;37.40;;;;;;5112075;28;20453;-65
2021/05/22 03:28:19;;;;;;;0.20;0.20;;;23.50;37.40;;;;;;5112439;28;20463;-63
2021/05/22 03:30:45;;;;;;;0.70;0.30;;;23.50;37.40;;;;;;5112522;28;20434;-64
2021/05/22 03:33:10;;;;;;;0.28;0.20;;;23.50;37.40;;;;;;5112396;28;20428;-64
2021/05/22 03:35:36;;;;;;;0.30;0.20;;;23.50;37.40;;;;;;5112145;28;20442;-64
2021/05/22 03:38:02;;;;;;;0.40;0.20;;;23.50;37.40;;;;;;5111917;28;20380;-64
2021/05/22 03:40:27;;;;;;;0.20;0.10;;;23.50;37.50;;;;;;5112296;28;20384;-64
2021/05/22 03:42:53;;;;;;;0.40;0.15;;;23.50;37.50;;;;;;5112298;28;20409;-65
2021/05/22 03:45:19;;;;;;;0.40;0.20;;;23.50;37.40;;;;;;5112317;28;20735;-65
2021/05/22 03:47:45;;;;;;;0.30;0.20;;;23.50;37.50;;;;;;5111802;28;20404;-63
2021/05/22 03:50:11;;;;;;;0.40;0.10;;;23.50;37.50;;;;;;5111766;28;20376;-65
2021/05/22 03:52:37;;;;;;;0.60;0.20;;;23.50;37.50;;;;;;5111702;28;20434;-65
2021/05/22 03:55:04;;;;;;;0.35;0.20;;;23.40;37.40;;;;;;5112218;28;20469;-64
2021/05/22 03:57:30;;;;;;;0.32;0.20;;;23.50;37.60;;;;;;5112109;28;20396;-64
2021/05/22 03:59:55;;;;;;;0.30;0.20;;;23.50;37.50;;;;;;5111483;28;20372;-64
2021/05/22 04:02:21;;;;;;;0.50;0.20;;;23.40;37.40;;;;;;5111734;28;20542;-64
2021/05/22 04:04:47;;;;;;;0.30;0.17;;;23.40;37.50;;;;;;5110838;28;20388;-65
2021/05/22 04:07:12;;;;;;;0.20;0.20;;;23.50;37.50;;;;;;5111964;28;20445;-64
2021/05/22 04:09:38;;;;;;;0.23;0.20;;;23.40;37.40;;;;;;5112003;28;20947;-64
2021/05/22 04:12:04;;;;;;;0.35;0.20;;;23.50;37.50;;;;;;5111249;28;20880;-64
2021/05/22 04:14:29;;;;;;;0.47;0.20;;;23.50;37.50;;;;;;5110683;28;20744;-64
2021/05/22 04:16:55;;;;;;;0.40;0.20;;;23.40;37.40;;;;;;5111889;28;20389;-64
2021/05/22 04:19:21;;;;;;;0.30;0.20;;;23.40;37.40;;;;;;5115248;28;20467;-63
2021/05/22 04:21:46;;;;;;;0.30;0.20;;;23.40;37.40;;;;;;5115713;28;20884;-61
2021/05/22 04:24:12;;;;;;;0.23;0.10;;;23.40;37.40;;;;;;5116038;28;20455;-64
2021/05/22 04:26:37;;;;;;;0.60;0.20;;;23.40;37.40;;;;;;5116034;28;20396;-64
2021/05/22 04:29:04;;;;;;;0.20;0.20;;;23.40;37.40;;;;;;5115983;28;20422;-64
2021/05/22 04:31:30;;;;;;;0.35;0.20;;;23.40;37.50;;;;;;5115977;28;20417;-65
2021/05/22 04:33:55;;;;;;;0.40;0.20;;;23.40;37.50;;;;;;5115431;28;20471;-64
2021/05/22 04:36:21;;;;;;;0.33;0.10;;;23.40;37.50;;;;;;5115645;28;20383;-64
2021/05/22 04:38:47;;;;;;;0.95;0.20;;;23.40;37.30;;;;;;5115816;28;20376;-64
2021/05/22 04:41:13;;;;;;;0.80;0.20;;;23.30;37.30;;;;;;5115658;28;20382;-64
2021/05/22 04:43:38;;;;;;;0.40;0.20;;;23.30;37.30;;;;;;5115663;28;20449;-64
2021/05/22 04:46:04;;;;;;;0.50;0.20;;;23.30;37.40;;;;;;5115156;28;20380;-64
2021/05/22 04:48:30;;;;;;;0.70;0.30;;;23.30;37.30;;;;;;5115601;28;20388;-61
2021/05/22 04:50:55;;;;;;;0.50;0.20;;;23.30;37.40;;;;;;5115524;28;20383;-64
2021/05/22 04:53:24;;;;;;;0.38;0.20;;;23.30;37.40;;;;;;5115418;28;20388;-64
2021/05/22 04:55:50;;;;;;;0.50;0.25;;;23.30;37.40;;;;;;5114992;28;20392;-64
2021/05/22 04:58:16;;;;;;;0.50;0.25;;;23.30;37.30;;;;;;5115448;28;20388;-64
2021/05/22 05:00:41;;;;;;;0.47;0.23;;;23.30;37.30;;;;;;5115206;28;20423;-64
2021/05/22 05:03:07;;;;;;;0.80;0.32;;;23.30;37.50;;;;;;5115155;28;20963;-65
2021/05/22 05:05:33;;;;;;;0.45;0.30;;;23.30;37.40;;;;;;5114743;28;20408;-63
2021/05/22 05:07:59;;;;;;;0.60;0.23;;;23.30;37.40;;;;;;5114285;28;20376;-64
2021/05/22 05:10:24;;;;;;;0.63;0.30;;;23.30;37.40;;;;;;5113663;28;20739;-65
2021/05/22 05:12:52;;;;;;;0.50;0.20;;;23.30;37.40;;;;;;5115159;28;20380;-64
2021/05/22 05:15:18;;;;;;;0.63;0.30;;;23.30;37.40;;;;;;5115073;28;20393;-63
2021/05/22 05:17:44;;;;;;;0.80;0.30;;;23.30;37.40;;;;;;5114913;28;20822;-64
2021/05/22 05:20:10;;;;;;;0.75;0.30;;;23.30;37.50;;;;;;5114728;28;20368;-64
2021/05/22 05:22:36;;;;;;;0.70;0.28;;;23.30;37.40;;;;;;5114828;28;20447;-65
2021/05/22 05:25:02;;;;;;;0.47;0.20;;;23.30;37.50;;;;;;5114924;28;20416;-65
2021/05/22 05:27:27;;;;;;;0.40;0.20;;;23.30;37.40;;;;;;5114823;28;20483;-64
2021/05/22 05:29:53;;;;;;;0.63;0.23;;;23.30;37.50;;;;;;5113515;28;20774;-64
2021/05/22 05:32:19;;;;;;;0.60;0.30;;;23.30;37.40;;;;;;5114097;28;20384;-64
2021/05/22 05:34:44;;;;;;;0.60;0.30;;;23.20;37.40;;;;;;5114785;28;20379;-64
2021/05/22 05:37:11;;;;;;;0.82;0.30;;;23.30;37.50;;;;;;5114336;28;20502;-64
2021/05/22 05:39:38;;;;;;;0.30;0.10;;;23.30;37.40;;;;;;5114702;28;20385;-63
2021/05/22 05:42:04;;;;;;;0.70;0.30;;;23.30;37.40;;;;;;5114108;28;20511;-64
2021/05/22 05:44:29;;;;;;;0.52;0.20;;;23.30;37.40;;;;;;5114528;28;20377;-64
2021/05/22 05:46:56;;;;;;;0.60;0.30;;;23.20;37.40;;;;;;5114703;28;20394;-64
2021/05/22 05:49:21;;;;;;;0.80;0.30;;;23.30;37.40;;;;;;5114420;28;20747;-64
2021/05/22 05:51:47;;;;;;;0.52;0.25;;;23.20;37.40;;;;;;5114124;28;20399;-64
2021/05/22 05:54:13;;;;;;;0.70;0.23;;;23.20;37.40;;;;;;5114102;28;20404;-63
2021/05/22 05:56:39;;;;;;;0.50;0.20;;;23.30;37.50;;;;;;5114395;28;20741;-64
2021/05/22 05:59:04;;;;;;;0.40;0.20;;;23.30;37.40;;;;;;5114189;28;20416;-64
2021/05/22 06:01:30;;;;;;;1.20;0.40;;;23.20;37.50;;;;;;5114022;28;20480;-64
2021/05/22 06:03:56;;;;;;;2.13;0.40;;;23.20;37.70;;;;;;5113516;28;20392;-63
2021/05/22 06:06:22;;;;;;;1.08;0.32;;;23.30;37.40;;;;;;5113976;28;20392;-65
2021/05/22 06:08:48;;;;;;;0.85;0.35;;;23.20;37.30;;;;;;5114105;28;20393;-64
2021/05/22 06:11:16;;;;;;;1.27;0.30;;;23.20;37.20;;;;;;5112698;28;20740;-63
2021/05/22 06:13:43;;;;;;;0.82;0.32;;;23.20;37.40;;;;;;5113991;28;20384;-67
2021/05/22 06:18:37;;;;;;;1.00;0.20;;;23.10;37.70;;;;;;5113672;28;20467;-66
2021/05/22 06:21:04;;;;;;;0.98;0.35;;;23.10;37.50;;;;;;5113793;28;20498;-67
2021/05/22 06:23:30;;;;;;;1.77;0.30;;;23.10;37.60;;;;;;5113015;28;20415;-66
2021/05/22 06:25:58;;;;;;;1.90;0.28;;;23.00;37.80;;;;;;5112905;28;20376;-66
2021/05/22 06:28:23;;;;;;;1.38;0.20;;;23.00;38.10;;;;;;5113465;28;20514;-66
2021/05/22 06:30:49;;;;;;;1.50;0.20;;;23.00;38.00;;;;;;5113668;28;20888;-66
2021/05/22 06:33:15;;;;;;;2.00;0.30;;;23.00;38.00;;;;;;5113443;28;20387;-67
2021/05/22 06:35:41;;;;;;;2.15;0.30;;;23.00;38.10;;;;;;5113298;28;20468;-66
2021/05/22 06:38:08;;;;;;;2.50;0.40;;;23.00;38.10;;;;;;5112888;28;20476;-66
2021/05/22 06:40:33;;;;;;;0.90;0.30;;;23.00;38.20;;;;;;5112060;28;20906;-67
2021/05/22 06:42:59;;;;;;;1.20;0.30;;;23.00;38.20;;;;;;5112318;28;20408;-66
2021/05/22 06:45:26;;;;;;;2.93;0.30;;;23.00;38.20;;;;;;5113279;28;20906;-67
2021/05/22 06:47:52;;;;;;;3.53;0.47;;;23.00;38.30;;;;;;5112887;28;20748;-67
2021/05/22 06:50:18;;;;;;;2.03;0.30;;;23.10;38.30;;;;;;5112872;28;20736;-66
2021/05/22 06:52:44;;;;;;;2.40;0.60;;;23.10;38.40;;;;;;5113404;28;20384;-66
2021/05/22 06:55:10;;;;;;;2.63;0.40;;;23.00;38.50;;;;;;5113049;28;20377;-66
2021/05/22 06:57:36;;;;;;;2.47;0.60;;;23.00;38.60;;;;;;5113044;28;20384;-67
2021/05/22 07:00:03;;;;;;;0.80;0.30;;;23.00;38.60;;;;;;5112929;28;20391;-67
2021/05/22 07:02:29;;;;;;;1.70;0.45;;;23.10;39.00;;;;;;5112662;28;20415;-67
2021/05/22 07:04:54;;;;;;;2.67;0.50;;;23.10;39.10;;;;;;5112747;28;20425;-66
2021/05/22 07:07:20;;;;;;;3.30;0.50;;;23.00;39.70;;;;;;5112750;28;20713;-63
2021/05/22 07:09:46;;;;;;;2.90;0.40;;;22.90;39.30;;;;;;5112835;28;20403;-63
2021/05/22 07:12:11;;;;;;;3.67;0.52;;;22.90;39.50;;;;;;5112238;28;20392;-64
2021/05/22 07:14:37;;;;;;;1.43;0.40;;;22.90;39.70;;;;;;5112636;28;20387;-64
2021/05/22 07:17:03;;;;;;;1.38;0.60;;;22.90;39.40;;;;;;5112615;28;20395;-63
2021/05/22 07:19:29;;;;;;;2.17;0.60;;;22.90;39.20;;;;;;5112611;28;20475;-66
2021/05/22 07:21:56;;;;;;;1.10;0.40;;;22.90;39.20;;;;;;5112336;28;20521;-63
2021/05/22 07:24:23;;;;;;;0.90;0.40;;;22.90;39.10;;;;;;5112406;28;20876;-64
2021/05/22 07:26:50;;;;;;;1.60;0.40;;;22.80;39.10;;;;;;5112525;28;20388;-64
2021/05/22 07:29:16;;;;;;;1.30;0.40;;;22.80;39.20;;;;;;5112376;28;20392;-64
2021/05/22 07:31:43;;;;;;;2.50;0.50;;;22.80;39.20;;;;;;5112492;28;20736;-64
2021/05/22 07:34:09;;;;;;;1.80;0.40;;;22.80;39.50;;;;;;5111821;28;20519;-64
2021/05/22 07:36:36;;;;;;;2.15;0.40;;;22.90;39.50;;;;;;5112299;28;20376;-64
2021/05/22 07:39:04;;;;;;;2.10;0.47;;;22.90;39.40;;;;;;5111604;28;20471;-63
2021/05/22 07:41:30;;;;;;;1.30;0.50;;;22.80;39.50;;;;;;5111101;28;20376;-63
2021/05/22 07:43:56;;;;;;;1.48;0.68;;;22.80;39.70;;;;;;5111351;28;20391;-64
2021/05/22 07:46:21;;;;;;;3.88;0.80;;;22.70;39.90;;;;;;5111290;28;20395;-63
2021/05/22 07:48:47;;;;;;;2.20;0.50;;;22.70;40.20;;;;;;5111858;28;20868;-64
2021/05/22 07:51:14;;;;;;;1.20;0.50;;;22.70;40.20;;;;;;5112109;28;20384;-63
2021/05/22 07:53:40;;;;;;;3.13;0.43;;;22.70;39.90;;;;;;5111757;28;20380;-64
2021/05/22 07:56:06;;;;;;;1.37;0.40;;;22.70;39.80;;;;;;5110260;28;20388;-64
2021/05/22 07:58:31;;;;;;;1.35;0.40;;;22.80;39.70;;;;;;5112106;28;20385;-64
2021/05/22 08:00:57;;;;;;;1.50;0.70;;;22.80;39.60;;;;;;5107067;28;20400;-64
2021/05/22 08:03:24;;;;;;;1.83;0.50;;;22.90;39.60;;;;;;5099144;28;20442;-64
2021/05/22 08:05:50;;;;;;;2.40;0.40;;;22.90;39.30;;;;;;5089592;28;20952;-64
2021/05/22 08:08:15;;;;;;;0.70;0.30;;;22.90;39.30;;;;;;5089242;28;20900;-64
2021/05/22 08:10:41;;;;;;;2.50;0.40;;;22.90;39.30;;;;;;5089934;28;20882;-64
2021/05/22 08:13:09;;;;;;;2.10;0.40;;;22.90;39.20;;;;;;5089641;28;20439;-65
2021/05/22 08:15:35;;;;;;;0.63;0.30;;;22.90;39.20;;;;;;5089578;28;20385;-66
2021/05/22 08:18:00;;;;;;;1.33;0.40;;;23.00;39.10;;;;;;5090309;28;20386;-61
2021/05/22 08:20:26;;;;;;;2.30;0.40;;;23.00;39.20;;;;;;5091538;28;20543;-64
2021/05/22 08:22:52;;;;;;;0.67;0.30;;;22.90;39.10;;;;;;5091481;28;20912;-65
2021/05/22 08:25:17;;;;;;;0.77;0.40;;;22.90;39.10;;;;;;5091390;28;20791;-64
2021/05/22 08:27:43;;;;;;;1.00;0.30;;;23.00;39.10;;;;;;5091573;28;20451;-64
2021/05/22 08:30:11;;;;;;;1.17;0.60;;;22.90;39.10;;;;;;5090914;28;20378;-64
2021/05/22 08:32:37;;;;;;;1.05;0.40;;;22.90;39.10;;;;;;5091401;28;20362;-64
2021/05/22 08:35:05;;;;;;;0.73;0.30;;;22.90;39.10;;;;;;5091301;28;20394;-65
2021/05/22 08:37:31;;;;;;;1.00;0.30;;;23.00;39.40;;;;;;5091291;28;20393;-64
2021/05/22 08:39:57;;;;;;;1.17;0.40;;;23.00;39.10;;;;;;5090814;28;20390;-64
2021/05/22 08:42:25;;;;;;;1.20;0.40;;;23.10;39.20;;;;;;5090941;28;20768;-64
2021/05/22 08:44:51;;;;;;;0.70;0.30;;;23.10;39.10;;;;;;5091328;28;20394;-65
2021/05/22 08:47:18;;;;;;;0.88;0.50;;;23.10;39.00;;;;;;5091189;28;20465;-64
2021/05/22 08:49:44;;;;;;;0.70;0.40;;;23.20;39.00;;;;;;5091210;28;20404;-64
2021/05/22 08:52:17;;;;;;;0.77;0.30;;;23.30;38.90;;;;;;5090816;28;20821;-64
2021/05/22 08:54:45;;;;;;;0.93;0.32;;;23.30;38.80;;;;;;5090773;28;20480;-63
2021/05/22 08:57:11;;;;;;;1.25;0.40;;;23.30;38.80;;;;;;5090626;28;20465;-64
2021/05/22 08:59:43;;;;;;;1.03;0.20;;;23.20;38.90;;;;;;5091036;28;20416;-64
2021/05/22 09:02:11;;;;;;;0.80;0.30;;;23.20;39.00;;;;;;5090290;28;20902;-63
2021/05/22 09:05:14;;;;;;;2.33;0.40;;;23.20;38.90;;;;;;5073554;28;20414;-64
2021/05/22 09:07:50;;;;;;;3.60;0.40;;;23.30;38.90;;;;;;5094542;28;20792;-64
2021/05/22 09:10:29;;;;;;;3.92;0.80;;;23.20;38.90;;;;;;5094253;28;20382;-64
2021/05/22 09:12:59;;;;;;;1.67;0.50;;;23.30;38.90;;;;;;5094698;28;20911;-64
2021/05/22 09:15:37;;;;;;;3.65;0.50;;;23.30;38.80;;;;;;5094332;28;20396;-64
2021/05/22 09:18:05;;;;;;;2.72;0.45;;;23.30;38.80;;;;;;5076182;28;20405;-65
2021/05/22 09:20:40;;;;;;;2.45;0.50;;;23.30;38.80;;;;;;5094554;28;20382;-63
2021/05/22 09:23:09;;;;;;;4.75;0.80;;;23.30;38.70;;;;;;5094275;28;20418;-64
2021/05/22 09:25:44;;;;;;;1.83;0.40;;;23.30;38.60;;;;;;5093988;28;20451;-63
2021/05/22 09:28:12;;;;;;;1.70;0.40;;;23.30;38.60;;;;;;5075721;28;20901;-64
2021/05/22 09:30:40;;;;;;;2.53;0.43;;;23.30;38.40;;;;;;5094319;28;20469;-64
2021/05/22 09:33:15;;;;;;;2.08;0.40;;;23.40;38.30;;;;;;5075983;28;20394;-64
2021/05/22 09:35:49;;;;;;;1.98;0.43;;;23.40;38.10;;;;;;5094379;28;20370;-65
2021/05/22 09:38:15;;;;;;;1.35;0.40;;;23.40;38.00;;;;;;5093784;28;20382;-63
2021/05/22 09:40:42;;;;;;;1.53;0.40;;;23.40;37.80;;;;;;5093952;28;20385;-64
2021/05/22 09:43:09;;;;;;;2.10;0.40;;;23.40;37.80;;;;;;5094289;28;20425;-65
2021/05/22 09:45:43;;;;;;;2.20;0.40;;;23.40;37.50;;;;;;5094208;28;20431;-65
2021/05/22 09:48:18;;;;;;;6.53;0.80;;;23.30;37.80;;;;;;5093636;28;20390;-64
2021/05/22 09:50:54;;;;;;;2.58;0.70;;;23.30;37.70;;;;;;5093929;28;20382;-63
2021/05/22 09:53:26;;;;;;;4.93;0.82;;;23.30;37.70;;;;;;5093965;28;20390;-64
2021/05/22 09:56:11;;;;;;;4.47;0.60;;;23.30;37.60;;;;;;5071817;28;20404;-65
2021/05/22 09:58:53;;;;;;;3.20;0.50;;;23.40;37.60;;;;;;5042719;28;20475;-64
2021/05/22 10:01:21;;;;;;;3.63;0.70;;;23.40;37.40;;;;;;5059498;28;20985;-65
2021/05/22 10:03:47;;;;;;;3.88;0.65;;;23.40;37.40;;;;;;5072091;28;20507;-64
2021/05/22 10:06:14;;;;;;;5.35;0.95;;;23.50;37.60;;;;;;5071610;28;20517;-64
2021/05/22 10:08:40;;;;;;;3.75;0.70;;;23.50;37.80;;;;;;5071908;28;20403;-64
2021/05/22 10:11:06;;;;;;;5.65;0.82;;;23.60;37.90;;;;;;5071567;28;20391;-65
2021/05/22 10:13:32;;;;;;;4.05;0.70;;;23.60;38.00;;;;;;5071887;28;20388;-65
2021/05/22 10:16:00;;;;;;;4.70;1.20;;;23.60;37.80;;;;;;5071656;28;20387;-65
2021/05/22 10:18:27;;;;;;;2.33;0.70;;;23.60;37.80;;;;;;5071477;28;20407;-65
2021/05/22 10:20:55;;;;;;;3.65;0.60;;;23.70;37.80;;;;;;5071701;28;20534;-64
2021/05/22 10:23:21;;;;;;;2.38;0.80;;;23.70;37.70;;;;;;5071688;28;20456;-65
2021/05/22 10:25:51;;;;;;;4.90;0.90;;;23.80;37.90;;;;;;5071319;28;20513;-64
2021/05/22 10:28:17;;;;;;;2.93;0.60;;;23.80;37.60;;;;;;5071160;28;20445;-65
2021/05/22 10:30:43;;;;;;;2.58;0.70;;;23.80;37.70;;;;;;5071402;28;20398;-65
2021/05/22 10:33:10;;;;;;;2.47;0.55;;;23.80;37.70;;;;;;5071565;28;20398;-64
2021/05/22 10:35:43;;;;;;;4.30;0.65;;;23.70;38.00;;;;;;5070366;28;20398;-64
2021/05/22 10:38:10;;;;;;;3.92;0.60;;;23.60;38.20;;;;;;5071244;28;20486;-64
2021/05/22 10:40:51;;;;;;;2.50;0.60;;;23.60;38.30;;;;;;5071302;28;20531;-64
2021/05/22 10:43:46;;;;;;;3.42;0.65;;;23.60;38.40;;;;;;5071296;28;20454;-64
2021/05/22 10:46:14;;;;;;;2.20;0.63;;;23.50;38.50;;;;;;5069562;28;20392;-64
2021/05/22 10:48:47;;;;;;;3.30;0.70;;;23.50;38.70;;;;;;5071336;28;20475;-64
2021/05/22 10:51:45;;;;;;;2.85;0.70;;;23.50;38.90;;;;;;5071178;28;20434;-65
2021/05/22 10:54:14;;;;;;;3.42;0.90;;;23.50;38.80;;;;;;5047316;28;20998;-64
2021/05/22 10:57:01;;;;;;;3.58;1.60;;;23.50;38.70;;;;;;5071450;28;20411;-65
2021/05/22 10:59:28;;;;;;;4.68;2.70;;;23.50;38.70;;;;;;5071254;28;20899;-64
2021/05/22 11:01:53;;;;;;;4.55;2.40;;;23.60;38.20;;;;;;5068529;28;21068;-64
2021/05/22 11:04:24;;;;;;;4.85;2.17;;;23.50;38.00;;;;;;5070535;28;20470;-64
2021/05/22 11:07:02;;;;;;;4.80;1.80;;;23.50;38.00;;;;;;5070997;28;20380;-64
2021/05/22 11:12:28;;;;;;;5.13;1.77;;;23.60;38.10;;;;;;5071798;28;20427;-64
2021/05/22 11:14:55;;;;;;;4.00;1.70;;;23.60;37.70;;;;;;5066726;28;20899;-64
2021/05/22 11:17:29;;;;;;;8.00;2.10;;;23.50;38.50;;;;;;5072007;28;20482;-64
2021/05/22 11:22:49;;;;;;;5.65;1.50;;;23.40;38.20;;;;;;5071392;28;20431;-64
2021/05/22 11:25:18;;;;;;;6.43;1.50;;;23.40;38.70;;;;;;5071512;28;20384;-65
2021/05/22 11:28:05;;;;;;;3.00;1.40;;;23.40;40.00;;;;;;5070798;28;20423;-63
2021/05/22 11:30:38;;;;;;;7.45;2.65;;;23.50;39.80;;;;;;5070789;28;20399;-64
2021/05/22 11:33:09;;;;;;;13.73;3.95;;;23.50;41.20;;;;;;5071719;28;20453;-64
2021/05/22 11:35:40;;;;;;;17.33;4.60;;;23.60;41.30;;;;;;5071621;28;20384;-65
2021/05/22 11:38:12;;;;;;;10.70;3.42;;;23.70;41.30;;;;;;5070490;28;20388;-65
2021/05/22 11:40:38;;;;;;;8.23;2.45;;;23.70;39.50;;;;;;5071781;28;20419;-64
2021/05/22 11:43:16;;;;;;;8.40;2.60;;;23.70;40.00;;;;;;5070009;28;20443;-63
2021/05/22 11:45:49;;;;;;;12.15;2.67;;;23.90;41.80;;;;;;5071944;28;20855;-65
2021/05/22 11:48:37;;;;;;;8.60;2.83;;;24.00;41.70;;;;;;5069900;28;20392;-64
2021/05/22 11:51:16;;;;;;;7.30;2.35;;;24.10;41.50;;;;;;5071590;28;20391;-64
2021/05/22 11:53:43;;;;;;;6.07;2.07;;;24.10;40.40;;;;;;5070308;28;20899;-65
2021/05/22 11:56:14;;;;;;;5.78;2.00;;;24.20;39.50;;;;;;5071268;28;20789;-64
2021/05/22 11:58:53;;;;;;;6.00;2.05;;;24.20;39.10;;;;;;5071550;28;20462;-65
2021/05/22 12:01:23;;;;;;;6.93;1.97;;;24.30;39.10;;;;;;5070085;28;20407;-65
2021/05/22 12:03:52;;;;;;;8.38;2.10;;;24.40;38.90;;;;;;5071391;28;20419;-64
2021/05/22 12:06:34;;;;;;;7.10;1.88;;;24.50;38.70;;;;;;5070871;28;20379;-65
2021/05/22 12:09:06;;;;;;;9.13;1.90;;;24.50;38.60;;;;;;5071349;28;20441;-63
2021/05/22 12:11:33;;;;;;;5.55;1.85;;;24.60;39.30;;;;;;5070813;28;20396;-65
2021/05/22 12:14:04;;;;;;;5.03;1.50;;;24.60;38.80;;;;;;5069715;28;20468;-63
2021/05/22 12:16:31;;;;;;;5.63;1.50;;;24.60;38.70;;;;;;5070765;28;20391;-64
2021/05/22 12:18:57;;;;;;;5.85;1.70;;;24.70;38.40;;;;;;5069892;28;20399;-65
2021/05/22 12:21:28;;;;;;;7.75;1.90;;;24.70;38.60;;;;;;5070269;28;20376;-63
2021/05/22 12:24:06;;;;;;;6.00;1.60;;;24.70;38.50;;;;;;5015529;28;20423;-64
2021/05/22 12:26:32;;;;;;;4.80;1.30;;;24.80;38.30;;;;;;5030718;28;20387;-64
2021/05/22 12:28:58;;;;;;;5.45;1.40;;;24.80;38.10;;;;;;5031347;28;20445;-65
2021/05/22 12:31:24;;;;;;;6.20;1.50;;;24.80;38.20;;;;;;5031197;28;20797;-65
2021/05/22 12:34:08;;;;;;;5.32;1.50;;;24.70;38.30;;;;;;5031216;28;20423;-65
2021/05/22 12:36:52;;;;;;;6.40;1.60;;;24.70;38.80;;;;;;5030826;28;20433;-65
2021/05/22 12:39:17;;;;;;;8.25;1.60;;;24.70;38.70;;;;;;5032456;28;20390;-65
2021/05/22 12:41:43;;;;;;;7.80;1.45;;;24.80;38.60;;;;;;5034779;28;20383;-65
2021/05/22 12:44:19;;;;;;;7.27;1.40;;;24.80;38.30;;;;;;5034642;28;20418;-65
2021/05/22 12:46:54;;;;;;;12.25;1.70;;;24.80;38.30;;;;;;5034890;28;20379;-65
2021/05/22 12:49:20;;;;;;;7.47;1.60;;;24.80;38.20;;;;;;5035115;28;20391;-65
2021/05/22 12:52:07;;;;;;;7.13;1.60;;;24.80;38.10;;;;;;5067056;28;20891;-65
2021/05/22 12:54:35;;;;;;;8.23;1.40;;;24.90;37.60;;;;;;5063903;28;20407;-65
2021/05/22 12:57:11;;;;;;;9.10;1.30;;;25.00;36.90;;;;;;5034855;28;20383;-65
2021/05/22 12:59:39;;;;;;;9.47;1.30;;;24.90;36.90;;;;;;5034851;28;20399;-64